Terminal Aerodrome Forecast
Issued by NWS

Home | Current Version | Previous Version | Text Only | Print | Product List | Glossary On
Versions: 1 2 3 4 5 6 7 8 9 10 11 12 13 14 15 16 17 18 19 20 21 22 23 24 25 26 27
000
FTUS42 KGSP 182339
TAFHKY
TAF
KHKY 182339Z 1900/1924 18008KT P6SM BKN100
     FM190400 17009G16KT P6SM VCSH OVC060
     FM190900 17011G19KT P6SM OVC007 PROB30 1909/1913 4SM -SHRA
      OVC004
     FM191300 17013G22KT 6SM SHRA BR OVC009 PROB30 1916/1920 2SM
      TSRA BR OVC004CB
     FM192000 17011G18KT 6SM -SHRA OVC020=

USA.gov is the U.S. government's official web portal to all federal, state and local government web resources and services.